East Orleans, Massachusetts
Current Conditions -  °F | °C
As of 7:21 AM on Thursday 18 Dec 2014 (Local Time) from KCQX Reporting Station
Light Rain Light Rain  
Wind Chill: 31°   Ceiling: 3600
Heat Index: 36°   Visibility: 10mi
Dew Point: 32°   Wind: 6mph
Humidity: 86%   Direction: 280°W
Pressure: 29.74"   Gusts: 20mph
Location:  41.78°N, 69.97°W
Report Text: KCQX 181221Z AUTO 28005G17KT 10SM -RA BKN036 OVC060 02/00 A2974 RMK AO2 P0000 T00220000
Loading
Personal Weather Stations






























Interactive Weather Map New forecast layout! Learn more

10-Day Weather Forecast

Advertisements
Track Severe Weather on mobile